sensor_id;sensor_type;location;lat;lon;timestamp;temperature;humidity
23568;DHT22;11962;50.838;4.430;2024-02-16T00:00:25;15.20;99.90
23568;DHT22;11962;50.838;4.430;2024-02-16T00:02:51;15.20;99.90
23568;DHT22;11962;50.838;4.430;2024-02-16T00:05:17;15.20;99.90
23568;DHT22;11962;50.838;4.430;2024-02-16T00:07:42;15.20;99.90
23568;DHT22;11962;50.838;4.430;2024-02-16T00:10:08;15.20;99.90
23568;DHT22;11962;50.838;4.430;2024-02-16T00:12:35;15.20;99.90
23568;DHT22;11962;50.838;4.430;2024-02-16T00:15:02;15.20;99.90
23568;DHT22;11962;50.838;4.430;2024-02-16T00:17:28;15.10;99.90
23568;DHT22;11962;50.838;4.430;2024-02-16T00:19:57;15.20;99.90
23568;DHT22;11962;50.838;4.430;2024-02-16T00:22:23;15.20;99.90
23568;DHT22;11962;50.838;4.430;2024-02-16T00:24:49;15.20;99.90
23568;DHT22;11962;50.838;4.430;2024-02-16T00:27:15;15.20;99.90
23568;DHT22;11962;50.838;4.430;2024-02-16T00:29:41;15.20;99.90
23568;DHT22;11962;50.838;4.430;2024-02-16T00:32:07;15.20;99.90
23568;DHT22;11962;50.838;4.430;2024-02-16T00:34:34;15.20;99.90
23568;DHT22;11962;50.838;4.430;2024-02-16T00:37:00;15.20;99.90
23568;DHT22;11962;50.838;4.430;2024-02-16T00:39:26;15.10;99.90
23568;DHT22;11962;50.838;4.430;2024-02-16T00:41:52;15.10;99.90
23568;DHT22;11962;50.838;4.430;2024-02-16T00:44:18;15.10;99.90
23568;DHT22;11962;50.838;4.430;2024-02-16T00:46:44;15.10;99.90
23568;DHT22;11962;50.838;4.430;2024-02-16T00:49:10;15.10;99.90
23568;DHT22;11962;50.838;4.430;2024-02-16T00:51:39;15.10;99.90
23568;DHT22;11962;50.838;4.430;2024-02-16T00:54:05;15.10;99.90
23568;DHT22;11962;50.838;4.430;2024-02-16T00:56:32;15.10;99.90
23568;DHT22;11962;50.838;4.430;2024-02-16T00:58:58;15.10;99.90
23568;DHT22;11962;50.838;4.430;2024-02-16T01:01:24;15.10;99.90
23568;DHT22;11962;50.838;4.430;2024-02-16T01:03:52;15.10;99.90
23568;DHT22;11962;50.838;4.430;2024-02-16T01:06:18;15.10;99.90
23568;DHT22;11962;50.838;4.430;2024-02-16T01:08:44;15.10;99.90
23568;DHT22;11962;50.838;4.430;2024-02-16T01:11:09;15.10;99.90
23568;DHT22;11962;50.838;4.430;2024-02-16T01:13:35;15.10;99.90
23568;DHT22;11962;50.838;4.430;2024-02-16T01:16:02;15.10;99.90
23568;DHT22;11962;50.838;4.430;2024-02-16T01:18:28;15.10;99.90
23568;DHT22;11962;50.838;4.430;2024-02-16T01:20:54;15.00;99.90
23568;DHT22;11962;50.838;4.430;2024-02-16T01:23:21;15.00;99.90
23568;DHT22;11962;50.838;4.430;2024-02-16T01:25:47;14.90;99.90
23568;DHT22;11962;50.838;4.430;2024-02-16T01:28:13;14.90;99.90
23568;DHT22;11962;50.838;4.430;2024-02-16T01:30:39;15.00;99.90
23568;DHT22;11962;50.838;4.430;2024-02-16T01:33:06;15.00;99.90
23568;DHT22;11962;50.838;4.430;2024-02-16T01:35:35;15.00;99.90
23568;DHT22;11962;50.838;4.430;2024-02-16T01:38:01;15.10;99.90
23568;DHT22;11962;50.838;4.430;2024-02-16T01:40:27;15.10;99.90
23568;DHT22;11962;50.838;4.430;2024-02-16T01:42:54;15.10;99.90
23568;DHT22;11962;50.838;4.430;2024-02-16T01:45:20;15.20;99.90
23568;DHT22;11962;50.838;4.430;2024-02-16T01:47:47;15.20;99.90
23568;DHT22;11962;50.838;4.430;2024-02-16T01:50:15;15.20;99.90
23568;DHT22;11962;50.838;4.430;2024-02-16T01:52:46;15.20;99.90
23568;DHT22;11962;50.838;4.430;2024-02-16T01:55:13;15.20;99.90
23568;DHT22;11962;50.838;4.430;2024-02-16T01:57:41;15.20;99.90
23568;DHT22;11962;50.838;4.430;2024-02-16T02:00:08;15.20;99.90
23568;DHT22;11962;50.838;4.430;2024-02-16T02:02:40;15.20;99.90
23568;DHT22;11962;50.838;4.430;2024-02-16T02:05:06;15.20;99.90
23568;DHT22;11962;50.838;4.430;2024-02-16T02:07:32;15.20;99.90
23568;DHT22;11962;50.838;4.430;2024-02-16T02:09:58;15.20;99.90
23568;DHT22;11962;50.838;4.430;2024-02-16T02:12:24;15.20;99.90
23568;DHT22;11962;50.838;4.430;2024-02-16T02:14:50;15.20;99.90
23568;DHT22;11962;50.838;4.430;2024-02-16T02:17:17;15.20;99.90
23568;DHT22;11962;50.838;4.430;2024-02-16T02:19:45;15.10;99.90
23568;DHT22;11962;50.838;4.430;2024-02-16T02:22:17;15.10;99.90
23568;DHT22;11962;50.838;4.430;2024-02-16T02:24:46;15.20;99.90
23568;DHT22;11962;50.838;4.430;2024-02-16T02:27:13;15.10;99.90
23568;DHT22;11962;50.838;4.430;2024-02-16T02:29:39;15.10;99.90
23568;DHT22;11962;50.838;4.430;2024-02-16T02:32:06;15.20;99.90
23568;DHT22;11962;50.838;4.430;2024-02-16T02:34:32;15.20;99.90
23568;DHT22;11962;50.838;4.430;2024-02-16T02:36:58;15.20;99.90
23568;DHT22;11962;50.838;4.430;2024-02-16T02:39:24;15.20;99.90
23568;DHT22;11962;50.838;4.430;2024-02-16T02:41:49;15.20;99.90
23568;DHT22;11962;50.838;4.430;2024-02-16T02:44:18;15.20;99.90
23568;DHT22;11962;50.838;4.430;2024-02-16T02:46:47;15.20;99.90
23568;DHT22;11962;50.838;4.430;2024-02-16T02:49:12;15.20;99.90
23568;DHT22;11962;50.838;4.430;2024-02-16T02:51:38;15.30;99.90
23568;DHT22;11962;50.838;4.430;2024-02-16T02:54:04;15.20;99.90
23568;DHT22;11962;50.838;4.430;2024-02-16T02:56:30;15.30;99.90
23568;DHT22;11962;50.838;4.430;2024-02-16T02:58:55;15.20;99.90
23568;DHT22;11962;50.838;4.430;2024-02-16T03:01:21;15.20;99.90
23568;DHT22;11962;50.838;4.430;2024-02-16T03:03:47;15.30;99.90
23568;DHT22;11962;50.838;4.430;2024-02-16T03:06:23;15.20;99.90
23568;DHT22;11962;50.838;4.430;2024-02-16T03:08:49;15.20;99.90
23568;DHT22;11962;50.838;4.430;2024-02-16T03:11:14;15.20;99.90
23568;DHT22;11962;50.838;4.430;2024-02-16T03:13:40;15.30;99.90
23568;DHT22;11962;50.838;4.430;2024-02-16T03:16:06;15.30;99.90
23568;DHT22;11962;50.838;4.430;2024-02-16T03:18:33;15.30;99.90
23568;DHT22;11962;50.838;4.430;2024-02-16T03:20:59;15.20;99.90
23568;DHT22;11962;50.838;4.430;2024-02-16T03:23:25;15.20;99.90
23568;DHT22;11962;50.838;4.430;2024-02-16T03:25:51;15.30;99.90
23568;DHT22;11962;50.838;4.430;2024-02-16T03:28:17;15.30;99.90
23568;DHT22;11962;50.838;4.430;2024-02-16T03:30:43;15.20;99.90
23568;DHT22;11962;50.838;4.430;2024-02-16T03:33:09;15.20;99.90
23568;DHT22;11962;50.838;4.430;2024-02-16T03:35:36;15.20;99.90
23568;DHT22;11962;50.838;4.430;2024-02-16T03:38:02;15.20;99.90
23568;DHT22;11962;50.838;4.430;2024-02-16T03:40:28;15.20;99.90
23568;DHT22;11962;50.838;4.430;2024-02-16T03:42:54;15.20;99.90
23568;DHT22;11962;50.838;4.430;2024-02-16T03:45:20;15.10;99.90
23568;DHT22;11962;50.838;4.430;2024-02-16T03:47:47;15.20;99.90
23568;DHT22;11962;50.838;4.430;2024-02-16T03:50:14;15.20;99.90
23568;DHT22;11962;50.838;4.430;2024-02-16T03:52:40;15.20;99.90
23568;DHT22;11962;50.838;4.430;2024-02-16T03:55:06;15.20;99.90
23568;DHT22;11962;50.838;4.430;2024-02-16T03:57:32;15.20;99.90
23568;DHT22;11962;50.838;4.430;2024-02-16T03:59:58;15.20;99.90
23568;DHT22;11962;50.838;4.430;2024-02-16T04:02:24;15.20;99.90
23568;DHT22;11962;50.838;4.430;2024-02-16T04:04:50;15.20;99.90
23568;DHT22;11962;50.838;4.430;2024-02-16T04:07:16;15.20;99.90
23568;DHT22;11962;50.838;4.430;2024-02-16T04:09:42;15.20;99.90
23568;DHT22;11962;50.838;4.430;2024-02-16T04:12:08;15.30;99.90
23568;DHT22;11962;50.838;4.430;2024-02-16T04:14:35;15.30;99.90
23568;DHT22;11962;50.838;4.430;2024-02-16T04:17:01;15.30;99.90
23568;DHT22;11962;50.838;4.430;2024-02-16T04:19:27;15.40;99.90
23568;DHT22;11962;50.838;4.430;2024-02-16T04:21:53;15.40;99.90
23568;DHT22;11962;50.838;4.430;2024-02-16T04:24:18;15.40;99.90
23568;DHT22;11962;50.838;4.430;2024-02-16T04:26:45;15.40;99.90
23568;DHT22;11962;50.838;4.430;2024-02-16T04:29:10;15.40;99.90
23568;DHT22;11962;50.838;4.430;2024-02-16T04:31:40;15.40;99.90
23568;DHT22;11962;50.838;4.430;2024-02-16T04:34:08;15.40;99.90
23568;DHT22;11962;50.838;4.430;2024-02-16T04:36:34;15.40;99.90
23568;DHT22;11962;50.838;4.430;2024-02-16T04:39:00;15.40;99.90
23568;DHT22;11962;50.838;4.430;2024-02-16T04:41:26;15.40;99.90
23568;DHT22;11962;50.838;4.430;2024-02-16T04:43:51;15.40;99.90
23568;DHT22;11962;50.838;4.430;2024-02-16T04:46:18;15.40;99.90
23568;DHT22;11962;50.838;4.430;2024-02-16T04:48:44;15.40;99.90
23568;DHT22;11962;50.838;4.430;2024-02-16T04:51:11;15.40;99.90
23568;DHT22;11962;50.838;4.430;2024-02-16T04:53:37;15.40;99.90
23568;DHT22;11962;50.838;4.430;2024-02-16T04:56:03;15.50;99.90
23568;DHT22;11962;50.838;4.430;2024-02-16T04:58:28;15.50;99.90
23568;DHT22;11962;50.838;4.430;2024-02-16T05:00:54;15.50;99.90
23568;DHT22;11962;50.838;4.430;2024-02-16T05:03:20;15.60;99.90
23568;DHT22;11962;50.838;4.430;2024-02-16T05:05:46;15.50;99.90
23568;DHT22;11962;50.838;4.430;2024-02-16T05:08:11;15.50;99.90
23568;DHT22;11962;50.838;4.430;2024-02-16T05:10:37;15.50;99.90
23568;DHT22;11962;50.838;4.430;2024-02-16T05:13:04;15.50;99.90
23568;DHT22;11962;50.838;4.430;2024-02-16T05:15:30;15.50;99.90
23568;DHT22;11962;50.838;4.430;2024-02-16T05:17:56;15.50;99.90
23568;DHT22;11962;50.838;4.430;2024-02-16T05:20:23;15.50;99.90
23568;DHT22;11962;50.838;4.430;2024-02-16T05:22:49;15.40;99.90
23568;DHT22;11962;50.838;4.430;2024-02-16T05:25:16;15.50;99.90
23568;DHT22;11962;50.838;4.430;2024-02-16T05:27:42;15.60;99.90
23568;DHT22;11962;50.838;4.430;2024-02-16T05:30:11;15.60;99.90
23568;DHT22;11962;50.838;4.430;2024-02-16T05:32:44;15.60;99.90
23568;DHT22;11962;50.838;4.430;2024-02-16T05:35:10;15.60;99.90
23568;DHT22;11962;50.838;4.430;2024-02-16T05:37:41;15.60;99.90
23568;DHT22;11962;50.838;4.430;2024-02-16T05:40:10;15.70;99.90
23568;DHT22;11962;50.838;4.430;2024-02-16T05:42:56;15.70;99.90
23568;DHT22;11962;50.838;4.430;2024-02-16T05:45:23;15.70;99.90
23568;DHT22;11962;50.838;4.430;2024-02-16T05:47:50;15.70;99.90
23568;DHT22;11962;50.838;4.430;2024-02-16T05:50:16;15.70;99.90
23568;DHT22;11962;50.838;4.430;2024-02-16T05:52:43;15.70;99.90
23568;DHT22;11962;50.838;4.430;2024-02-16T05:55:10;15.80;99.90
23568;DHT22;11962;50.838;4.430;2024-02-16T05:57:36;15.70;99.90
23568;DHT22;11962;50.838;4.430;2024-02-16T06:00:07;15.70;99.90
23568;DHT22;11962;50.838;4.430;2024-02-16T06:02:34;15.70;99.90
23568;DHT22;11962;50.838;4.430;2024-02-16T06:05:04;15.70;99.90
23568;DHT22;11962;50.838;4.430;2024-02-16T06:07:30;15.80;99.90
23568;DHT22;11962;50.838;4.430;2024-02-16T06:09:56;15.80;99.90
23568;DHT22;11962;50.838;4.430;2024-02-16T06:12:23;15.70;99.90
23568;DHT22;11962;50.838;4.430;2024-02-16T06:14:49;15.80;99.90
23568;DHT22;11962;50.838;4.430;2024-02-16T06:17:15;15.80;99.90
23568;DHT22;11962;50.838;4.430;2024-02-16T06:19:43;15.80;99.90
23568;DHT22;11962;50.838;4.430;2024-02-16T06:22:09;15.80;99.90
23568;DHT22;11962;50.838;4.430;2024-02-16T06:24:35;15.90;99.90
23568;DHT22;11962;50.838;4.430;2024-02-16T06:27:02;15.80;99.90
23568;DHT22;11962;50.838;4.430;2024-02-16T06:29:28;15.80;99.90
23568;DHT22;11962;50.838;4.430;2024-02-16T06:31:56;15.80;99.90
23568;DHT22;11962;50.838;4.430;2024-02-16T06:34:22;15.70;99.90
23568;DHT22;11962;50.838;4.430;2024-02-16T06:36:47;15.60;99.90
23568;DHT22;11962;50.838;4.430;2024-02-16T06:39:16;15.50;99.90
23568;DHT22;11962;50.838;4.430;2024-02-16T06:41:44;15.60;99.90
23568;DHT22;11962;50.838;4.430;2024-02-16T06:44:11;15.60;99.90
23568;DHT22;11962;50.838;4.430;2024-02-16T06:46:37;15.50;99.90
23568;DHT22;11962;50.838;4.430;2024-02-16T06:49:03;15.60;99.90
23568;DHT22;11962;50.838;4.430;2024-02-16T06:51:29;15.50;99.90
23568;DHT22;11962;50.838;4.430;2024-02-16T06:53:55;15.50;99.90
23568;DHT22;11962;50.838;4.430;2024-02-16T06:56:20;15.50;99.90
23568;DHT22;11962;50.838;4.430;2024-02-16T06:58:46;15.50;99.90
23568;DHT22;11962;50.838;4.430;2024-02-16T07:01:13;15.50;99.90
23568;DHT22;11962;50.838;4.430;2024-02-16T07:03:40;15.50;99.90
23568;DHT22;11962;50.838;4.430;2024-02-16T07:06:06;15.60;99.90
23568;DHT22;11962;50.838;4.430;2024-02-16T07:08:36;15.60;99.90
23568;DHT22;11962;50.838;4.430;2024-02-16T07:11:01;15.60;99.90
23568;DHT22;11962;50.838;4.430;2024-02-16T07:13:29;15.50;99.90
23568;DHT22;11962;50.838;4.430;2024-02-16T07:15:54;15.50;99.90
23568;DHT22;11962;50.838;4.430;2024-02-16T07:18:20;15.60;99.90
23568;DHT22;11962;50.838;4.430;2024-02-16T07:20:47;15.60;99.90
23568;DHT22;11962;50.838;4.430;2024-02-16T07:23:13;15.70;99.90
23568;DHT22;11962;50.838;4.430;2024-02-16T07:25:41;15.70;99.90
23568;DHT22;11962;50.838;4.430;2024-02-16T07:28:07;15.70;99.90
23568;DHT22;11962;50.838;4.430;2024-02-16T07:30:34;15.70;99.90
23568;DHT22;11962;50.838;4.430;2024-02-16T07:33:00;15.70;99.90
23568;DHT22;11962;50.838;4.430;2024-02-16T07:35:26;15.70;99.90
23568;DHT22;11962;50.838;4.430;2024-02-16T07:37:51;15.70;99.90
23568;DHT22;11962;50.838;4.430;2024-02-16T07:40:22;15.70;99.90
23568;DHT22;11962;50.838;4.430;2024-02-16T07:42:48;15.80;99.90
23568;DHT22;11962;50.838;4.430;2024-02-16T07:45:13;15.80;99.90
23568;DHT22;11962;50.838;4.430;2024-02-16T07:47:42;15.90;99.90
23568;DHT22;11962;50.838;4.430;2024-02-16T07:50:08;15.90;99.90
23568;DHT22;11962;50.838;4.430;2024-02-16T07:52:35;15.80;99.90
23568;DHT22;11962;50.838;4.430;2024-02-16T07:55:00;15.80;99.90
23568;DHT22;11962;50.838;4.430;2024-02-16T07:57:26;15.80;99.90
23568;DHT22;11962;50.838;4.430;2024-02-16T07:59:52;15.80;99.90
23568;DHT22;11962;50.838;4.430;2024-02-16T08:02:18;15.80;99.90
23568;DHT22;11962;50.838;4.430;2024-02-16T08:04:48;15.90;99.90
23568;DHT22;11962;50.838;4.430;2024-02-16T08:07:14;15.90;99.90
23568;DHT22;11962;50.838;4.430;2024-02-16T08:09:47;15.90;99.90
23568;DHT22;11962;50.838;4.430;2024-02-16T08:12:13;16.00;99.90
23568;DHT22;11962;50.838;4.430;2024-02-16T08:14:39;16.00;99.90
23568;DHT22;11962;50.838;4.430;2024-02-16T08:17:06;16.00;99.90
23568;DHT22;11962;50.838;4.430;2024-02-16T08:19:34;15.90;99.90
23568;DHT22;11962;50.838;4.430;2024-02-16T08:22:05;16.00;99.90
23568;DHT22;11962;50.838;4.430;2024-02-16T08:24:34;16.00;99.90
23568;DHT22;11962;50.838;4.430;2024-02-16T08:27:00;16.00;99.90
23568;DHT22;11962;50.838;4.430;2024-02-16T08:29:26;16.00;99.90
23568;DHT22;11962;50.838;4.430;2024-02-16T08:31:52;16.10;99.90
23568;DHT22;11962;50.838;4.430;2024-02-16T08:34:18;16.10;99.90
23568;DHT22;11962;50.838;4.430;2024-02-16T08:36:44;16.20;99.90
23568;DHT22;11962;50.838;4.430;2024-02-16T08:39:11;16.20;99.90
23568;DHT22;11962;50.838;4.430;2024-02-16T08:41:40;16.10;99.90
23568;DHT22;11962;50.838;4.430;2024-02-16T08:44:06;16.00;99.90
23568;DHT22;11962;50.838;4.430;2024-02-16T08:46:36;16.00;99.90
23568;DHT22;11962;50.838;4.430;2024-02-16T11:32:46;16.10;99.90
23568;DHT22;11962;50.838;4.430;2024-02-16T11:35:12;16.00;99.90
23568;DHT22;11962;50.838;4.430;2024-02-16T11:37:38;16.00;99.90
23568;DHT22;11962;50.838;4.430;2024-02-16T11:40:05;16.00;99.90
23568;DHT22;11962;50.838;4.430;2024-02-16T11:42:33;16.00;99.90
23568;DHT22;11962;50.838;4.430;2024-02-16T11:45:00;16.00;99.90
23568;DHT22;11962;50.838;4.430;2024-02-16T11:47:26;16.00;99.90
23568;DHT22;11962;50.838;4.430;2024-02-16T11:50:08;16.10;99.90
23568;DHT22;11962;50.838;4.430;2024-02-16T11:52:40;16.20;99.90
23568;DHT22;11962;50.838;4.430;2024-02-16T11:55:09;16.10;99.90
23568;DHT22;11962;50.838;4.430;2024-02-16T11:57:36;16.10;99.90
23568;DHT22;11962;50.838;4.430;2024-02-16T12:00:03;16.20;99.90
23568;DHT22;11962;50.838;4.430;2024-02-16T12:02:40;16.30;99.90
23568;DHT22;11962;50.838;4.430;2024-02-16T12:05:06;16.30;99.90
23568;DHT22;11962;50.838;4.430;2024-02-16T12:07:33;16.30;99.90
23568;DHT22;11962;50.838;4.430;2024-02-16T12:10:01;16.30;99.90
23568;DHT22;11962;50.838;4.430;2024-02-16T12:12:27;16.20;99.90
23568;DHT22;11962;50.838;4.430;2024-02-16T12:14:56;16.30;99.90
23568;DHT22;11962;50.838;4.430;2024-02-16T12:17:22;16.10;99.90
23568;DHT22;11962;50.838;4.430;2024-02-16T12:19:50;16.10;99.90
23568;DHT22;11962;50.838;4.430;2024-02-16T12:22:20;16.00;99.90
23568;DHT22;11962;50.838;4.430;2024-02-16T12:24:48;16.00;99.90
23568;DHT22;11962;50.838;4.430;2024-02-16T12:27:14;16.10;99.90
23568;DHT22;11962;50.838;4.430;2024-02-16T12:29:42;16.10;99.90
23568;DHT22;11962;50.838;4.430;2024-02-16T12:32:09;16.10;99.90
23568;DHT22;11962;50.838;4.430;2024-02-16T12:34:37;16.10;99.90
23568;DHT22;11962;50.838;4.430;2024-02-16T12:37:06;16.10;99.90
23568;DHT22;11962;50.838;4.430;2024-02-16T12:39:38;16.10;99.90
23568;DHT22;11962;50.838;4.430;2024-02-16T12:42:06;16.10;99.90
23568;DHT22;11962;50.838;4.430;2024-02-16T12:44:31;16.20;99.90
23568;DHT22;11962;50.838;4.430;2024-02-16T12:46:57;16.10;99.90
23568;DHT22;11962;50.838;4.430;2024-02-16T12:49:23;16.10;99.90
23568;DHT22;11962;50.838;4.430;2024-02-16T12:51:51;16.10;99.90
23568;DHT22;11962;50.838;4.430;2024-02-16T12:54:18;16.00;99.90
23568;DHT22;11962;50.838;4.430;2024-02-16T12:56:48;16.00;99.90
23568;DHT22;11962;50.838;4.430;2024-02-16T12:59:14;16.00;99.90
23568;DHT22;11962;50.838;4.430;2024-02-16T13:01:40;15.90;99.90
23568;DHT22;11962;50.838;4.430;2024-02-16T13:04:07;15.90;99.90
23568;DHT22;11962;50.838;4.430;2024-02-16T13:06:33;16.00;99.90
23568;DHT22;11962;50.838;4.430;2024-02-16T13:08:59;16.00;99.90
23568;DHT22;11962;50.838;4.430;2024-02-16T13:11:25;16.10;99.90
23568;DHT22;11962;50.838;4.430;2024-02-16T13:13:51;16.10;99.90
23568;DHT22;11962;50.838;4.430;2024-02-16T13:16:17;16.10;99.90
23568;DHT22;11962;50.838;4.430;2024-02-16T13:18:43;16.10;99.90
23568;DHT22;11962;50.838;4.430;2024-02-16T13:21:08;16.20;99.90
23568;DHT22;11962;50.838;4.430;2024-02-16T13:23:34;16.20;99.90
23568;DHT22;11962;50.838;4.430;2024-02-16T13:26:00;16.30;99.90
23568;DHT22;11962;50.838;4.430;2024-02-16T13:28:26;16.40;99.90
23568;DHT22;11962;50.838;4.430;2024-02-16T13:30:51;16.60;99.90
23568;DHT22;11962;50.838;4.430;2024-02-16T13:33:17;16.70;99.90
23568;DHT22;11962;50.838;4.430;2024-02-16T13:35:43;16.70;99.90
23568;DHT22;11962;50.838;4.430;2024-02-16T13:38:09;16.80;99.90
23568;DHT22;11962;50.838;4.430;2024-02-16T13:40:34;16.80;99.90
23568;DHT22;11962;50.838;4.430;2024-02-16T13:43:01;16.80;99.90
23568;DHT22;11962;50.838;4.430;2024-02-16T13:45:30;16.80;99.90
23568;DHT22;11962;50.838;4.430;2024-02-16T13:47:59;16.90;99.90
23568;DHT22;11962;50.838;4.430;2024-02-16T13:50:25;17.00;99.90
23568;DHT22;11962;50.838;4.430;2024-02-16T13:52:51;17.10;99.90
23568;DHT22;11962;50.838;4.430;2024-02-16T13:55:16;17.10;99.90
23568;DHT22;11962;50.838;4.430;2024-02-16T13:57:42;17.30;99.90
23568;DHT22;11962;50.838;4.430;2024-02-16T14:00:08;17.30;99.90
23568;DHT22;11962;50.838;4.430;2024-02-16T14:02:34;17.40;99.90
23568;DHT22;11962;50.838;4.430;2024-02-16T14:04:59;17.50;99.90
23568;DHT22;11962;50.838;4.430;2024-02-16T14:07:25;17.60;99.90
23568;DHT22;11962;50.838;4.430;2024-02-16T14:09:51;17.70;99.90
23568;DHT22;11962;50.838;4.430;2024-02-16T14:12:17;17.80;99.90
23568;DHT22;11962;50.838;4.430;2024-02-16T14:14:48;17.80;99.90
23568;DHT22;11962;50.838;4.430;2024-02-16T14:17:14;17.80;99.90
23568;DHT22;11962;50.838;4.430;2024-02-16T14:19:40;17.80;99.90
23568;DHT22;11962;50.838;4.430;2024-02-16T14:22:06;17.80;99.90
23568;DHT22;11962;50.838;4.430;2024-02-16T14:24:33;17.70;99.90
23568;DHT22;11962;50.838;4.430;2024-02-16T14:26:58;17.50;99.90
23568;DHT22;11962;50.838;4.430;2024-02-16T14:29:25;17.50;99.90
23568;DHT22;11962;50.838;4.430;2024-02-16T14:31:51;17.60;99.90
23568;DHT22;11962;50.838;4.430;2024-02-16T14:34:16;17.60;99.90
23568;DHT22;11962;50.838;4.430;2024-02-16T14:36:42;17.60;99.90
23568;DHT22;11962;50.838;4.430;2024-02-16T14:39:08;17.60;99.90
23568;DHT22;11962;50.838;4.430;2024-02-16T14:41:34;17.50;99.90
23568;DHT22;11962;50.838;4.430;2024-02-16T14:43:59;17.40;99.90
23568;DHT22;11962;50.838;4.430;2024-02-16T14:46:26;17.40;99.90
23568;DHT22;11962;50.838;4.430;2024-02-16T14:48:52;17.40;99.90
23568;DHT22;11962;50.838;4.430;2024-02-16T14:51:18;17.40;99.90
23568;DHT22;11962;50.838;4.430;2024-02-16T14:53:43;17.40;99.90
23568;DHT22;11962;50.838;4.430;2024-02-16T14:56:09;17.40;99.90
23568;DHT22;11962;50.838;4.430;2024-02-16T14:58:35;17.30;99.90
23568;DHT22;11962;50.838;4.430;2024-02-16T15:01:01;17.30;99.90
23568;DHT22;11962;50.838;4.430;2024-02-16T15:03:26;17.20;99.90
23568;DHT22;11962;50.838;4.430;2024-02-16T15:05:55;17.20;99.90
23568;DHT22;11962;50.838;4.430;2024-02-16T15:08:21;17.20;99.90
23568;DHT22;11962;50.838;4.430;2024-02-16T15:10:47;17.30;99.90
23568;DHT22;11962;50.838;4.430;2024-02-16T15:13:13;17.40;99.90
23568;DHT22;11962;50.838;4.430;2024-02-16T15:15:39;17.30;99.90
23568;DHT22;11962;50.838;4.430;2024-02-16T15:18:05;17.30;99.90
23568;DHT22;11962;50.838;4.430;2024-02-16T15:20:31;17.30;99.90
23568;DHT22;11962;50.838;4.430;2024-02-16T15:22:57;17.40;99.90
23568;DHT22;11962;50.838;4.430;2024-02-16T15:25:23;17.40;99.90
23568;DHT22;11962;50.838;4.430;2024-02-16T15:27:49;17.30;99.90
23568;DHT22;11962;50.838;4.430;2024-02-16T15:30:17;17.20;99.90
23568;DHT22;11962;50.838;4.430;2024-02-16T15:32:43;17.20;99.90
23568;DHT22;11962;50.838;4.430;2024-02-16T15:35:09;17.10;99.90
23568;DHT22;11962;50.838;4.430;2024-02-16T15:37:35;17.00;99.90
23568;DHT22;11962;50.838;4.430;2024-02-16T15:40:01;16.90;99.90
23568;DHT22;11962;50.838;4.430;2024-02-16T15:42:28;16.80;99.90
23568;DHT22;11962;50.838;4.430;2024-02-16T15:44:57;16.80;99.90
23568;DHT22;11962;50.838;4.430;2024-02-16T15:47:24;16.80;99.90
23568;DHT22;11962;50.838;4.430;2024-02-16T15:49:50;16.80;99.90
23568;DHT22;11962;50.838;4.430;2024-02-16T15:52:15;16.80;99.90
23568;DHT22;11962;50.838;4.430;2024-02-16T15:54:41;16.80;99.90
23568;DHT22;11962;50.838;4.430;2024-02-16T15:57:07;16.80;99.90
23568;DHT22;11962;50.838;4.430;2024-02-16T15:59:33;16.70;99.90
23568;DHT22;11962;50.838;4.430;2024-02-16T16:01:58;16.70;99.90
23568;DHT22;11962;50.838;4.430;2024-02-16T16:04:24;16.60;99.90
23568;DHT22;11962;50.838;4.430;2024-02-16T16:06:50;16.60;99.90
23568;DHT22;11962;50.838;4.430;2024-02-16T16:09:15;16.60;99.90
23568;DHT22;11962;50.838;4.430;2024-02-16T16:11:43;16.60;99.90
23568;DHT22;11962;50.838;4.430;2024-02-16T16:14:12;16.40;99.90
23568;DHT22;11962;50.838;4.430;2024-02-16T16:16:38;16.40;99.90
23568;DHT22;11962;50.838;4.430;2024-02-16T16:19:04;16.40;99.90
23568;DHT22;11962;50.838;4.430;2024-02-16T16:21:30;16.30;99.90
23568;DHT22;11962;50.838;4.430;2024-02-16T16:23:55;16.30;99.90
23568;DHT22;11962;50.838;4.430;2024-02-16T16:26:21;16.30;99.90
23568;DHT22;11962;50.838;4.430;2024-02-16T16:28:50;16.30;99.90
23568;DHT22;11962;50.838;4.430;2024-02-16T16:31:16;16.30;99.90
23568;DHT22;11962;50.838;4.430;2024-02-16T16:33:42;16.20;99.90
23568;DHT22;11962;50.838;4.430;2024-02-16T16:36:07;16.20;99.90
23568;DHT22;11962;50.838;4.430;2024-02-16T16:38:39;16.20;99.90
23568;DHT22;11962;50.838;4.430;2024-02-16T16:41:06;16.20;99.90
23568;DHT22;11962;50.838;4.430;2024-02-16T16:43:31;16.20;99.90
23568;DHT22;11962;50.838;4.430;2024-02-16T16:45:57;16.10;99.90
23568;DHT22;11962;50.838;4.430;2024-02-16T16:48:23;16.00;99.90
23568;DHT22;11962;50.838;4.430;2024-02-16T16:50:50;15.90;99.90
23568;DHT22;11962;50.838;4.430;2024-02-16T16:53:15;15.90;99.90
23568;DHT22;11962;50.838;4.430;2024-02-16T16:55:41;15.80;99.90
23568;DHT22;11962;50.838;4.430;2024-02-16T16:58:07;15.80;99.90
23568;DHT22;11962;50.838;4.430;2024-02-16T17:00:32;15.80;99.90
23568;DHT22;11962;50.838;4.430;2024-02-16T17:02:58;15.70;99.90
23568;DHT22;11962;50.838;4.430;2024-02-16T17:05:25;15.70;99.90
23568;DHT22;11962;50.838;4.430;2024-02-16T17:07:51;15.70;99.90
23568;DHT22;11962;50.838;4.430;2024-02-16T17:10:17;15.60;99.90
23568;DHT22;11962;50.838;4.430;2024-02-16T17:12:43;15.60;99.90
23568;DHT22;11962;50.838;4.430;2024-02-16T17:15:18;15.50;99.90
23568;DHT22;11962;50.838;4.430;2024-02-16T17:17:44;15.50;99.90
23568;DHT22;11962;50.838;4.430;2024-02-16T17:20:14;15.50;99.90
23568;DHT22;11962;50.838;4.430;2024-02-16T17:22:40;15.40;99.90
23568;DHT22;11962;50.838;4.430;2024-02-16T17:25:07;15.30;99.90
23568;DHT22;11962;50.838;4.430;2024-02-16T17:27:34;15.30;99.90
23568;DHT22;11962;50.838;4.430;2024-02-16T17:30:02;15.30;99.90
23568;DHT22;11962;50.838;4.430;2024-02-16T17:32:28;15.20;99.90
23568;DHT22;11962;50.838;4.430;2024-02-16T17:34:54;15.30;99.90
23568;DHT22;11962;50.838;4.430;2024-02-16T17:37:20;15.30;99.90
23568;DHT22;11962;50.838;4.430;2024-02-16T17:39:46;15.30;99.90
23568;DHT22;11962;50.838;4.430;2024-02-16T17:42:14;15.30;99.90
23568;DHT22;11962;50.838;4.430;2024-02-16T17:44:40;15.20;99.90
23568;DHT22;11962;50.838;4.430;2024-02-16T17:47:06;15.20;99.90
23568;DHT22;11962;50.838;4.430;2024-02-16T17:49:32;15.10;99.90
23568;DHT22;11962;50.838;4.430;2024-02-16T17:51:57;15.00;99.90
23568;DHT22;11962;50.838;4.430;2024-02-16T17:54:23;14.90;99.90
23568;DHT22;11962;50.838;4.430;2024-02-16T17:56:49;14.90;99.90
23568;DHT22;11962;50.838;4.430;2024-02-16T17:59:15;14.80;99.90
23568;DHT22;11962;50.838;4.430;2024-02-16T18:01:40;14.80;99.90
23568;DHT22;11962;50.838;4.430;2024-02-16T18:04:08;14.70;99.90
23568;DHT22;11962;50.838;4.430;2024-02-16T18:06:33;14.80;99.90
23568;DHT22;11962;50.838;4.430;2024-02-16T18:09:07;14.80;99.90